Time;durP1;ratioP1;P1;durP2;ratioP2;P2;SDS_P1;SDS_P2;PMS_P1;PMS_P2;Temp;Humidity;BMP_temperature;BMP_pressure;BME280_temperature;BME280_humidity;BME280_pressure;Samples;Min_cycle;Max_cycle;Signal;HPM_P1;HPM_P2
2022/05/29 00:01:10;;;;;;;4.47;1.85;;;8.80;99.90;;;;;;4988008;28;20048;-63
2022/05/29 00:03:37;;;;;;;4.47;1.83;;;8.80;99.90;;;;;;4988511;28;20116;-63
2022/05/29 00:06:05;;;;;;;7.70;1.92;;;8.90;99.90;;;;;;4988095;28;20049;-63
2022/05/29 00:08:35;;;;;;;2.92;1.20;;;8.90;99.90;;;;;;4987665;28;20041;-63
2022/05/29 00:11:02;;;;;;;3.28;1.65;;;8.90;99.90;;;;;;4986497;28;20041;-64
2022/05/29 00:13:29;;;;;;;7.10;1.52;;;9.00;99.90;;;;;;4985604;28;20607;-63
2022/05/29 00:15:56;;;;;;;2.83;1.83;;;9.00;99.90;;;;;;4989078;28;20281;-63
2022/05/29 00:18:24;;;;;;;4.57;2.13;;;8.90;99.90;;;;;;4988089;28;20063;-63
2022/05/29 00:20:56;;;;;;;4.05;1.35;;;9.00;99.90;;;;;;4984965;28;20044;-63
2022/05/29 00:23:26;;;;;;;2.45;1.08;;;9.00;99.90;;;;;;4977853;28;20677;-63
2022/05/29 00:25:54;;;;;;;6.57;1.35;;;9.00;99.90;;;;;;4967902;28;20059;-64
2022/05/29 00:28:21;;;;;;;4.80;1.90;;;9.00;99.90;;;;;;4986482;28;20109;-64
2022/05/29 00:30:48;;;;;;;3.92;1.80;;;9.00;99.90;;;;;;4988164;28;20624;-63
2022/05/29 00:33:15;;;;;;;5.57;1.40;;;9.00;99.90;;;;;;4988510;28;20049;-63
2022/05/29 00:35:42;;;;;;;9.00;1.60;;;9.00;99.90;;;;;;4988721;28;20554;-63
2022/05/29 00:38:11;;;;;;;2.42;1.40;;;9.00;99.90;;;;;;4968093;28;20510;-63
2022/05/29 00:41:05;;;;;;;3.55;1.40;;;9.00;99.90;;;;;;4988202;28;20860;-63
2022/05/29 00:43:33;;;;;;;3.90;1.50;;;9.00;99.90;;;;;;4988975;28;20052;-62
2022/05/29 00:46:01;;;;;;;7.18;1.40;;;9.00;99.90;;;;;;4986774;28;20063;-60
2022/05/29 00:48:28;;;;;;;8.80;1.88;;;9.00;99.90;;;;;;4984145;28;20918;-59
2022/05/29 00:51:01;;;;;;;2.38;0.90;;;9.00;99.90;;;;;;4989349;28;20151;-60
2022/05/29 00:53:30;;;;;;;5.95;1.48;;;9.00;99.90;;;;;;4988281;28;20045;-60
2022/05/29 00:56:05;;;;;;;3.75;2.17;;;9.00;99.90;;;;;;4988598;28;20088;-60
2022/05/29 00:58:32;;;;;;;4.15;1.48;;;9.00;99.90;;;;;;4983746;28;20357;-60
2022/05/29 01:01:02;;;;;;;4.22;1.77;;;9.00;99.90;;;;;;4987507;28;20824;-60
2022/05/29 01:03:29;;;;;;;3.53;1.45;;;9.10;99.90;;;;;;4988385;28;20114;-60
2022/05/29 01:05:56;;;;;;;3.60;1.10;;;9.00;99.90;;;;;;4977720;28;20119;-61
2022/05/29 01:08:28;;;;;;;6.88;2.22;;;9.10;99.90;;;;;;4988829;28;20175;-60
2022/05/29 01:11:06;;;;;;;2.45;1.52;;;9.10;99.90;;;;;;4984549;28;20147;-60
2022/05/29 01:13:58;;;;;;;7.53;1.83;;;9.10;99.90;;;;;;4987918;28;20144;-61
2022/05/29 01:16:48;;;;;;;2.30;1.23;;;9.10;99.90;;;;;;4986761;28;20037;-60
2022/05/29 01:19:38;;;;;;;7.28;1.52;;;9.10;99.90;;;;;;4984355;28;20033;-60
2022/05/29 01:22:08;;;;;;;4.00;1.67;;;9.10;99.90;;;;;;4983081;28;20821;-60
2022/05/29 01:24:54;;;;;;;4.65;1.85;;;9.10;99.90;;;;;;4979252;28;20555;-60
2022/05/29 01:27:42;;;;;;;5.72;2.10;;;9.00;99.90;;;;;;4968267;28;20581;-59
2022/05/29 01:30:33;;;;;;;3.45;1.85;;;9.00;99.90;;;;;;4965805;28;20064;-59
2022/05/29 01:33:12;;;;;;;2.80;1.42;;;9.00;99.90;;;;;;4967706;28;20830;-60
2022/05/29 01:36:04;;;;;;;7.28;1.60;;;9.00;99.90;;;;;;4967975;28;20628;-60
2022/05/29 01:38:43;;;;;;;4.38;2.25;;;8.90;99.90;;;;;;4967049;28;20377;-61
2022/05/29 01:41:19;;;;;;;3.33;1.48;;;8.80;99.90;;;;;;4989426;28;20041;-60
2022/05/29 01:44:06;;;;;;;7.25;1.80;;;8.80;99.90;;;;;;4986600;28;20581;-59
2022/05/29 01:46:37;;;;;;;2.75;1.58;;;8.80;99.90;;;;;;4986313;28;20041;-59
2022/05/29 01:49:22;;;;;;;6.15;2.00;;;8.70;99.90;;;;;;4984276;28;20977;-60
2022/05/29 01:51:59;;;;;;;9.75;2.55;;;8.50;99.90;;;;;;4986242;28;20057;-60
2022/05/29 01:54:39;;;;;;;6.28;2.03;;;8.40;99.90;;;;;;4986163;28;20064;-60
2022/05/29 01:57:32;;;;;;;4.95;2.17;;;8.30;99.90;;;;;;4989891;28;20340;-60
2022/05/29 02:00:20;;;;;;;6.35;2.20;;;8.20;99.90;;;;;;4985347;28;20045;-60
2022/05/29 02:03:03;;;;;;;9.27;2.47;;;8.20;99.90;;;;;;4989077;28;20056;-60
2022/05/29 02:05:35;;;;;;;4.28;2.00;;;8.10;99.90;;;;;;4988783;28;20114;-60
2022/05/29 02:08:27;;;;;;;2.70;1.80;;;8.00;99.90;;;;;;4988920;28;20538;-60
2022/05/29 02:11:03;;;;;;;5.30;2.55;;;8.00;99.90;;;;;;4983844;28;20045;-61
2022/05/29 02:14:03;;;;;;;7.55;2.20;;;8.00;99.90;;;;;;4982363;28;20573;-60
2022/05/29 02:16:46;;;;;;;5.50;2.33;;;7.90;99.90;;;;;;4985497;28;20383;-60
2022/05/29 02:19:24;;;;;;;14.85;2.30;;;7.80;99.90;;;;;;4985245;28;20198;-60
2022/05/29 02:21:57;;;;;;;8.50;2.05;;;7.80;99.90;;;;;;4984965;28;20044;-59
2022/05/29 02:24:37;;;;;;;8.68;3.10;;;7.70;99.90;;;;;;4982303;28;20244;-61
2022/05/29 02:27:27;;;;;;;6.90;2.45;;;7.70;99.90;;;;;;4981086;28;20757;-60
2022/05/29 02:29:56;;;;;;;3.45;1.80;;;7.60;99.90;;;;;;4963899;28;20217;-59
2022/05/29 02:33:00;;;;;;;8.00;2.28;;;7.60;99.90;;;;;;4966245;28;20038;-61
2022/05/29 02:35:40;;;;;;;5.53;2.30;;;7.60;99.90;;;;;;4965726;28;20865;-61
2022/05/29 02:38:13;;;;;;;8.07;2.33;;;7.50;99.90;;;;;;4963622;28;20041;-60
2022/05/29 02:40:46;;;;;;;5.05;2.28;;;7.50;99.90;;;;;;4951630;28;20439;-61
2022/05/29 02:43:45;;;;;;;5.13;2.25;;;7.50;99.90;;;;;;4984625;28;20041;-60
2022/05/29 02:46:34;;;;;;;10.27;3.08;;;7.40;99.90;;;;;;4984874;28;20037;-61
2022/05/29 02:49:28;;;;;;;5.28;2.63;;;7.40;99.90;;;;;;4982110;28;20033;-60
2022/05/29 02:52:11;;;;;;;5.10;2.17;;;7.30;99.90;;;;;;4985547;28;20151;-60
2022/05/29 02:54:38;;;;;;;9.90;4.05;;;7.30;99.90;;;;;;4987742;28;20179;-60
2022/05/29 02:57:08;;;;;;;11.80;3.13;;;7.20;99.90;;;;;;4986515;28;20356;-60
2022/05/29 03:00:11;;;;;;;3.65;2.22;;;7.20;99.90;;;;;;4972679;28;20067;-60
2022/05/29 03:02:48;;;;;;;4.47;2.38;;;7.20;99.90;;;;;;4973038;28;20237;-60
2022/05/29 03:05:21;;;;;;;6.18;2.00;;;7.20;99.90;;;;;;4986227;28;20029;-60
2022/05/29 03:07:58;;;;;;;8.23;3.05;;;7.30;99.90;;;;;;4988184;28;20209;-60
2022/05/29 03:11:13;;;;;;;7.70;2.40;;;7.30;99.90;;;;;;4989955;28;20045;-60
2022/05/29 03:14:01;;;;;;;7.80;2.83;;;7.40;99.90;;;;;;4959669;28;20061;-60
2022/05/29 03:16:48;;;;;;;5.25;2.08;;;7.50;99.90;;;;;;4969457;28;20049;-60
2022/05/29 03:19:24;;;;;;;5.90;2.65;;;7.50;99.90;;;;;;4988100;28;20766;-60
2022/05/29 03:21:54;;;;;;;3.95;2.20;;;7.50;99.90;;;;;;4990265;28;20198;-60
2022/05/29 03:24:50;;;;;;;6.18;2.60;;;7.60;99.90;;;;;;4970657;28;20049;-61
2022/05/29 03:27:26;;;;;;;4.97;2.05;;;7.60;99.90;;;;;;4982192;28;20173;-61
2022/05/29 03:30:05;;;;;;;6.35;2.38;;;7.70;99.90;;;;;;4965841;28;20045;-61
2022/05/29 03:32:34;;;;;;;8.38;1.90;;;7.70;99.90;;;;;;4967428;28;20720;-61
2022/05/29 03:35:24;;;;;;;5.78;3.30;;;7.70;99.90;;;;;;4966124;28;20072;-61
2022/05/29 03:37:52;;;;;;;4.18;1.83;;;7.80;99.90;;;;;;4967392;28;20354;-61
2022/05/29 03:40:20;;;;;;;4.57;2.00;;;7.80;99.90;;;;;;4968415;28;20037;-61
2022/05/29 03:42:47;;;;;;;5.43;2.03;;;7.80;99.90;;;;;;4983504;28;20142;-60
2022/05/29 03:45:15;;;;;;;4.72;1.98;;;7.90;99.90;;;;;;4981881;28;20045;-61
2022/05/29 03:47:42;;;;;;;9.93;2.63;;;7.90;99.90;;;;;;4989351;28;20041;-61
2022/05/29 03:50:12;;;;;;;12.38;2.50;;;7.90;99.90;;;;;;4985570;28;20809;-60
2022/05/29 03:52:39;;;;;;;3.35;1.80;;;7.90;99.90;;;;;;4985967;28;20362;-61
2022/05/29 03:55:07;;;;;;;3.55;2.20;;;7.80;99.90;;;;;;4987315;28;20037;-61
2022/05/29 03:57:35;;;;;;;7.97;2.85;;;7.80;99.90;;;;;;4985665;28;20052;-60
2022/05/29 04:00:08;;;;;;;6.20;2.25;;;7.80;99.90;;;;;;4986362;28;20562;-60
2022/05/29 04:02:40;;;;;;;7.50;2.45;;;7.80;99.90;;;;;;4987996;28;20636;-60
2022/05/29 04:05:14;;;;;;;11.25;3.60;;;7.80;99.90;;;;;;4971084;28;20219;-59
2022/05/29 04:13:15;;;;;;;5.38;2.60;;;7.90;99.90;;;;;;4988633;28;20037;-59
2022/05/29 04:15:45;;;;;;;5.32;2.35;;;7.90;99.90;;;;;;4989807;28;20605;-60
2022/05/29 04:18:17;;;;;;;4.70;3.03;;;8.00;99.90;;;;;;4986800;28;20798;-60
2022/05/29 04:20:45;;;;;;;4.78;2.05;;;7.90;99.90;;;;;;4969638;28;20465;-60
2022/05/29 04:23:13;;;;;;;2.97;1.80;;;8.00;99.90;;;;;;4992468;28;20203;-60
2022/05/29 04:25:43;;;;;;;6.18;2.13;;;8.00;99.90;;;;;;4992567;28;20045;-59
2022/05/29 04:28:11;;;;;;;5.65;2.03;;;8.10;99.90;;;;;;4989685;28;20651;-60
2022/05/29 04:30:41;;;;;;;6.68;2.00;;;8.10;99.90;;;;;;5001661;28;20741;-61
2022/05/29 04:33:08;;;;;;;7.00;2.58;;;8.10;99.90;;;;;;4988646;28;20041;-61
2022/05/29 04:35:45;;;;;;;7.18;2.15;;;8.10;99.90;;;;;;4987643;28;20040;-61
2022/05/29 04:38:16;;;;;;;4.72;2.20;;;8.20;99.90;;;;;;4989471;28;20033;-61
2022/05/29 04:40:44;;;;;;;2.70;1.67;;;8.20;99.90;;;;;;4987655;28;20170;-61
2022/05/29 04:43:12;;;;;;;3.90;2.10;;;8.20;99.90;;;;;;4989129;28;20048;-61
2022/05/29 04:45:43;;;;;;;4.28;2.28;;;8.30;99.90;;;;;;4985804;28;20191;-60
2022/05/29 04:48:16;;;;;;;3.92;2.33;;;8.30;99.90;;;;;;4984500;28;20798;-60
2022/05/29 04:50:54;;;;;;;6.15;2.42;;;8.40;99.90;;;;;;4988016;28;20041;-61
2022/05/29 04:53:21;;;;;;;6.53;2.20;;;8.40;99.90;;;;;;4987489;28;20328;-61
2022/05/29 04:55:51;;;;;;;;;;;8.50;99.90;;;;;;4987411;28;20084;-61
2022/05/29 04:58:21;;;;;;;6.10;2.60;;;8.60;99.90;;;;;;4984181;28;20030;-60
2022/05/29 05:00:49;;;;;;;6.78;2.47;;;8.60;99.90;;;;;;4988983;28;20033;-60
2022/05/29 05:03:16;;;;;;;6.60;2.20;;;8.60;99.90;;;;;;4971409;28;20045;-61
2022/05/29 05:05:45;;;;;;;4.70;2.40;;;8.70;99.90;;;;;;4985526;28;20041;-60
2022/05/29 05:08:12;;;;;;;4.88;1.83;;;8.70;99.90;;;;;;4984197;28;20298;-60
2022/05/29 05:10:41;;;;;;;3.88;2.13;;;8.80;99.90;;;;;;4984994;28;20396;-58
2022/05/29 05:13:09;;;;;;;6.65;2.63;;;8.90;99.90;;;;;;4989643;28;20138;-60
2022/05/29 05:15:36;;;;;;;1.95;1.52;;;8.90;99.90;;;;;;4987173;28;20159;-61
2022/05/29 05:18:04;;;;;;;6.32;2.10;;;9.00;99.90;;;;;;4972315;28;20037;-60
2022/05/29 05:20:33;;;;;;;5.10;2.35;;;9.00;99.90;;;;;;4985946;28;20052;-61
2022/05/29 05:23:00;;;;;;;4.07;2.28;;;9.10;99.90;;;;;;4991568;28;20037;-60
2022/05/29 05:25:27;;;;;;;5.03;2.20;;;9.20;99.90;;;;;;4988000;28;20564;-60
2022/05/29 05:27:55;;;;;;;4.13;2.17;;;9.20;99.90;;;;;;4984728;28;20038;-61
2022/05/29 05:30:22;;;;;;;3.97;2.42;;;9.30;99.90;;;;;;4983216;28;20210;-61
2022/05/29 05:32:49;;;;;;;5.82;2.83;;;9.30;99.90;;;;;;4952160;28;20621;-61
2022/05/29 05:35:16;;;;;;;;;;;9.40;99.90;;;;;;4952852;28;20188;-61
2022/05/29 05:37:44;;;;;;;8.45;2.33;;;9.40;99.90;;;;;;4967373;28;19921;-60
2022/05/29 05:40:14;;;;;;;5.95;3.00;;;9.40;99.90;;;;;;4968859;28;20034;-60
2022/05/29 05:42:41;;;;;;;4.53;2.40;;;9.50;99.90;;;;;;4984372;28;20037;-59
2022/05/29 05:45:11;;;;;;;4.32;2.25;;;9.50;99.90;;;;;;4989579;28;20205;-60
2022/05/29 05:47:39;;;;;;;7.05;2.90;;;9.60;99.90;;;;;;4989592;28;20051;-60
2022/05/29 05:50:09;;;;;;;5.47;2.67;;;9.60;99.90;;;;;;4989118;28;20055;-60
2022/05/29 05:52:38;;;;;;;4.88;2.60;;;9.70;99.90;;;;;;4971981;28;20332;-61
2022/05/29 05:55:07;;;;;;;6.32;3.30;;;9.70;99.90;;;;;;4988561;28;20138;-52
2022/05/29 05:57:34;;;;;;;12.90;3.85;;;9.80;99.90;;;;;;4989345;28;20336;-53
2022/05/29 06:00:03;;;;;;;10.73;3.95;;;9.80;99.90;;;;;;4987487;28;20830;-52
2022/05/29 06:02:34;;;;;;;7.15;3.45;;;9.90;99.90;;;;;;4988029;28;20155;-51
2022/05/29 06:05:01;;;;;;;9.00;3.63;;;9.90;99.90;;;;;;4985266;28;20044;-53
2022/05/29 06:07:28;;;;;;;;;;;10.00;99.90;;;;;;4970248;28;20219;-52
2022/05/29 06:09:55;;;;;;;11.63;3.63;;;10.00;99.90;;;;;;4985354;28;20073;-57
2022/05/29 06:12:22;;;;;;;4.40;2.70;;;10.10;99.90;;;;;;4980293;28;20033;-57
2022/05/29 06:14:49;;;;;;;7.78;2.75;;;10.20;99.90;;;;;;4984695;28;20235;-57
2022/05/29 06:17:16;;;;;;;6.05;3.05;;;10.20;99.90;;;;;;4984783;28;20041;-57
2022/05/29 06:19:43;;;;;;;4.18;2.60;;;10.30;99.90;;;;;;4984621;28;20048;-57
2022/05/29 06:22:10;;;;;;;6.63;2.90;;;10.30;99.90;;;;;;4984151;28;20260;-57
2022/05/29 06:24:37;;;;;;;10.85;2.92;;;10.30;99.90;;;;;;4984611;28;20049;-63
2022/05/29 06:27:05;;;;;;;5.88;2.55;;;10.40;99.90;;;;;;4965286;28;20179;-58
2022/05/29 06:29:33;;;;;;;9.23;2.55;;;10.40;99.90;;;;;;4980388;28;20613;-58
2022/05/29 06:32:03;;;;;;;8.98;3.40;;;10.50;99.90;;;;;;4962623;28;20033;-56
2022/05/29 06:34:33;;;;;;;2.05;1.73;;;10.50;99.90;;;;;;4979513;28;20068;-58
2022/05/29 06:37:06;;;;;;;5.65;2.40;;;10.50;99.90;;;;;;4966010;28;20613;-58
2022/05/29 06:39:37;;;;;;;3.33;2.00;;;10.60;99.90;;;;;;4966836;28;20064;-58
2022/05/29 06:42:05;;;;;;;2.72;2.28;;;10.60;99.90;;;;;;4980391;28;20143;-59
2022/05/29 06:44:37;;;;;;;5.70;2.58;;;10.70;99.90;;;;;;4984457;28;20269;-58
2022/05/29 06:47:09;;;;;;;7.00;3.10;;;10.80;99.90;;;;;;4982474;28;20037;-58
2022/05/29 06:49:37;;;;;;;6.28;2.30;;;10.90;99.90;;;;;;4985057;28;20041;-58
2022/05/29 06:52:11;;;;;;;5.35;2.83;;;10.90;99.90;;;;;;4982992;28;20142;-58
2022/05/29 06:54:39;;;;;;;5.55;2.22;;;11.00;99.90;;;;;;4983970;28;20052;-58
2022/05/29 06:57:07;;;;;;;3.65;2.30;;;11.10;99.90;;;;;;4985970;28;20041;-57
2022/05/29 07:08:06;;;;;;;9.80;3.20;;;11.50;99.90;;;;;;4984388;28;20049;-57
2022/05/29 07:10:33;;;;;;;3.80;2.15;;;11.60;99.90;;;;;;4986298;28;20037;-60
2022/05/29 07:13:02;;;;;;;4.88;2.70;;;11.80;99.90;;;;;;4985895;28;20185;-57
2022/05/29 07:15:30;;;;;;;7.35;3.00;;;11.90;99.90;;;;;;4983154;28;20509;-67
2022/05/29 07:17:59;;;;;;;5.18;2.40;;;12.10;99.90;;;;;;4981460;28;20365;-58
2022/05/29 07:20:28;;;;;;;8.75;2.60;;;12.30;99.90;;;;;;4985824;28;20029;-58
2022/05/29 07:22:57;;;;;;;11.18;2.60;;;12.50;99.90;;;;;;5000672;28;20044;-63
2022/05/29 07:25:24;;;;;;;3.28;2.33;;;12.60;99.90;;;;;;5002046;28;20801;-59
2022/05/29 07:27:50;;;;;;;;;;;12.80;99.90;;;;;;4991336;28;20037;-66
2022/05/29 07:30:18;;;;;;;6.63;2.23;;;13.00;99.90;;;;;;4980783;28;20063;-59
2022/05/29 07:32:47;;;;;;;5.20;2.03;;;13.00;99.90;;;;;;4982477;28;20582;-59
2022/05/29 07:35:16;;;;;;;5.82;2.47;;;13.10;99.90;;;;;;4986683;28;20040;-58
2022/05/29 07:37:44;;;;;;;8.15;3.17;;;13.20;99.90;;;;;;4987659;28;20826;-58
2022/05/29 07:40:11;;;;;;;6.55;2.90;;;13.40;99.90;;;;;;4969929;28;20033;-58
2022/05/29 07:45:25;;;;;;;7.53;2.90;;;13.70;99.90;;;;;;4988631;28;20291;-58
2022/05/29 07:47:52;;;;;;;6.85;3.08;;;13.90;99.90;;;;;;4989034;28;20550;-57
2022/05/29 07:50:21;;;;;;;8.32;2.53;;;13.90;99.90;;;;;;4989991;28;20055;-57
2022/05/29 07:52:50;;;;;;;7.68;2.85;;;13.90;99.90;;;;;;4988022;28;20049;-57
2022/05/29 07:55:18;;;;;;;4.82;2.25;;;13.90;99.90;;;;;;4990327;28;20182;-56
2022/05/29 07:57:46;;;;;;;6.82;2.45;;;13.90;99.90;;;;;;4984856;28;21006;-55
2022/05/29 08:00:18;;;;;;;6.30;2.15;;;13.90;99.90;;;;;;4986686;28;20343;-56
2022/05/29 08:02:46;;;;;;;6.95;2.78;;;14.00;99.90;;;;;;4985717;28;20107;-57
2022/05/29 08:05:16;;;;;;;10.32;3.13;;;14.20;99.90;;;;;;4987790;28;20259;-57
2022/05/29 08:07:44;;;;;;;3.88;2.00;;;14.20;99.90;;;;;;4988717;28;20048;-57
2022/05/29 08:10:14;;;;;;;5.25;1.83;;;14.10;99.90;;;;;;4969882;28;20044;-57
2022/05/29 08:12:41;;;;;;;9.98;2.85;;;14.10;99.90;;;;;;4970562;28;20601;-58
2022/05/29 08:15:10;;;;;;;8.38;2.72;;;14.20;99.90;;;;;;4968501;28;20220;-58
2022/05/29 08:17:38;;;;;;;7.93;2.42;;;14.10;99.90;;;;;;4985797;28;20392;-58
2022/05/29 08:20:07;;;;;;;9.98;2.50;;;14.10;99.90;;;;;;4970026;28;20037;-58
2022/05/29 08:22:34;;;;;;;6.82;3.10;;;14.10;99.90;;;;;;4993859;28;20554;-57
2022/05/29 08:30:38;;;;;;;4.13;2.70;;;14.20;99.90;;;;;;4987879;28;20886;-55
2022/05/29 08:33:12;;;;;;;5.90;2.45;;;14.30;99.90;;;;;;4973332;28;20041;-58
2022/05/29 08:35:42;;;;;;;6.53;2.47;;;14.40;99.90;;;;;;4967132;28;20049;-51
2022/05/29 08:38:10;;;;;;;7.35;2.17;;;14.60;99.90;;;;;;4972891;28;20354;-58
2022/05/29 08:40:50;;;;;;;5.43;2.65;;;14.70;99.90;;;;;;4985293;28;20416;-58
2022/05/29 08:43:36;;;;;;;5.38;2.58;;;14.90;99.90;;;;;;4986963;28;20052;-58
2022/05/29 08:46:28;;;;;;;8.35;2.33;;;15.00;99.90;;;;;;4985410;28;20869;-58
2022/05/29 08:48:56;;;;;;;5.32;2.28;;;15.10;99.90;;;;;;4986546;28;20135;-58
2022/05/29 08:51:50;;;;;;;6.03;2.45;;;15.20;99.90;;;;;;4984909;28;20880;-58
2022/05/29 08:54:46;;;;;;;10.18;2.80;;;15.40;99.90;;;;;;4989145;28;20333;-57
2022/05/29 08:57:18;;;;;;;5.15;2.45;;;15.60;99.90;;;;;;4988348;28;20045;-59
2022/05/29 09:00:07;;;;;;;4.95;2.35;;;15.90;99.90;;;;;;4988800;28;20048;-57
2022/05/29 09:02:58;;;;;;;7.05;2.10;;;16.10;99.90;;;;;;4988807;28;20037;-57
2022/05/29 09:06:01;;;;;;;8.65;2.35;;;16.50;99.90;;;;;;4969059;28;20344;-58
2022/05/29 09:08:41;;;;;;;8.80;2.33;;;16.80;95.80;;;;;;4985397;28;20045;-58
2022/05/29 09:11:19;;;;;;;4.32;2.05;;;16.90;96.60;;;;;;4965133;28;20787;-55
2022/05/29 09:13:54;;;;;;;7.15;2.22;;;16.90;94.60;;;;;;4967788;28;20515;-57
2022/05/29 09:16:25;;;;;;;6.43;2.60;;;16.90;91.20;;;;;;4985216;28;20240;-56
2022/05/29 09:19:20;;;;;;;5.68;2.00;;;16.90;94.00;;;;;;4984204;28;20037;-57
2022/05/29 09:21:56;;;;;;;7.18;2.40;;;17.00;94.00;;;;;;4984725;28;20045;-58
2022/05/29 09:24:35;;;;;;;3.05;1.73;;;17.10;91.10;;;;;;4984913;28;20049;-57
2022/05/29 09:27:03;;;;;;;4.85;1.98;;;17.30;92.30;;;;;;4984135;28;20628;-59
2022/05/29 09:29:30;;;;;;;2.72;1.90;;;17.40;92.20;;;;;;4984771;28;20033;-56
2022/05/29 09:31:57;;;;;;;6.80;2.20;;;17.50;91.10;;;;;;4982956;28;20211;-58
2022/05/29 09:34:25;;;;;;;9.93;2.35;;;17.50;89.00;;;;;;4980586;28;20056;-55
2022/05/29 09:37:08;;;;;;;6.63;2.42;;;17.30;91.80;;;;;;4966730;28;20614;-57
2022/05/29 09:39:47;;;;;;;7.72;2.30;;;17.20;92.10;;;;;;4949722;28;20539;-56
2022/05/29 09:42:23;;;;;;;5.82;2.03;;;17.00;84.10;;;;;;4998277;28;20443;-57
2022/05/29 09:45:17;;;;;;;9.00;2.10;;;16.70;84.30;;;;;;4982848;28;20045;-57
2022/05/29 09:50:57;;;;;;;4.97;2.10;;;16.20;91.40;;;;;;4980958;28;20049;-56
2022/05/29 09:53:28;;;;;;;5.18;2.58;;;16.10;92.30;;;;;;4967035;28;20226;-57
2022/05/29 09:56:02;;;;;;;3.42;1.58;;;16.00;89.20;;;;;;4982529;28;20049;-55
2022/05/29 09:58:43;;;;;;;5.22;2.03;;;15.80;87.40;;;;;;4967552;28;20045;-56
2022/05/29 10:01:11;;;;;;;6.82;2.45;;;15.80;96.20;;;;;;4964903;28;20210;-56
2022/05/29 10:04:08;;;;;;;6.78;2.15;;;16.00;94.50;;;;;;4966125;28;20060;-56
2022/05/29 10:06:42;;;;;;;12.73;2.92;;;16.10;94.30;;;;;;4982900;28;20206;-58
2022/05/29 10:09:11;;;;;;;6.68;2.10;;;16.00;90.80;;;;;;4985681;28;20565;-56
2022/05/29 10:11:40;;;;;;;4.35;1.80;;;15.90;85.10;;;;;;4986563;28;20052;-56
2022/05/29 10:14:22;;;;;;;5.50;2.38;;;15.80;91.00;;;;;;4982812;28;20072;-56
2022/05/29 10:16:50;;;;;;;4.10;1.73;;;15.90;91.30;;;;;;4983404;28;20076;-57
2022/05/29 10:19:38;;;;;;;5.45;1.80;;;15.80;92.60;;;;;;4986571;28;20037;-56
2022/05/29 10:22:19;;;;;;;4.13;1.85;;;15.90;92.50;;;;;;4984865;28;20563;-56
2022/05/29 10:24:47;;;;;;;3.58;1.70;;;15.80;91.70;;;;;;4989736;28;20195;-56
2022/05/29 10:27:31;;;;;;;6.70;2.05;;;15.80;91.90;;;;;;4986927;28;20029;-56
2022/05/29 10:30:11;;;;;;;3.70;1.50;;;15.90;90.70;;;;;;4985730;28;20194;-56
2022/05/29 10:32:42;;;;;;;4.28;1.58;;;16.00;90.70;;;;;;4982151;28;20209;-56
2022/05/29 10:35:32;;;;;;;5.30;1.77;;;16.20;84.60;;;;;;4980193;28;20048;-57
2022/05/29 10:38:18;;;;;;;4.35;1.30;;;16.50;83.40;;;;;;4971873;28;20574;-57
2022/05/29 10:40:48;;;;;;;10.60;2.78;;;16.70;74.20;;;;;;4970254;28;20543;-56
2022/05/29 10:43:44;;;;;;;5.43;1.50;;;16.80;64.10;;;;;;4982188;28;20164;-57
2022/05/29 10:46:18;;;;;;;6.30;1.70;;;16.80;65.20;;;;;;4965759;28;20130;-56
2022/05/29 10:48:55;;;;;;;3.97;1.55;;;16.90;62.80;;;;;;4982449;28;20521;-56
2022/05/29 10:51:32;;;;;;;3.80;1.17;;;16.90;59.40;;;;;;4966531;28;20493;-56
2022/05/29 10:54:02;;;;;;;8.43;2.15;;;17.10;62.00;;;;;;4991187;28;20821;-57
2022/05/29 10:56:49;;;;;;;6.93;2.22;;;17.20;60.20;;;;;;4983896;28;20826;-56
2022/05/29 10:59:45;;;;;;;5.35;1.65;;;17.40;60.10;;;;;;4990856;28;20332;-56
2022/05/29 11:06:07;;;;;;;6.07;1.67;;;18.20;60.30;;;;;;4991984;28;20142;-58
2022/05/29 11:08:53;;;;;;;4.68;1.60;;;18.30;57.80;;;;;;4992899;28;20041;-58
2022/05/29 11:11:52;;;;;;;4.82;1.63;;;18.40;56.40;;;;;;4988905;28;20931;-58
2022/05/29 11:14:26;;;;;;;9.77;1.92;;;18.70;57.10;;;;;;4995547;28;20574;-58
2022/05/29 11:17:05;;;;;;;7.05;2.03;;;18.70;55.50;;;;;;4990989;28;20316;-58
2022/05/29 11:19:50;;;;;;;3.72;2.30;;;18.90;58.10;;;;;;4989758;28;20051;-57
2022/05/29 11:23:17;;;;;;;2.80;1.10;;;19.10;59.20;;;;;;4990737;28;20043;-57
2022/05/29 11:25:56;;;;;;;6.32;2.03;;;19.30;56.30;;;;;;4989475;28;20051;-56
2022/05/29 11:28:42;;;;;;;3.03;1.58;;;19.20;54.40;;;;;;4987694;28;20052;-56
2022/05/29 11:31:30;;;;;;;3.83;1.52;;;19.10;51.40;;;;;;4986823;28;20045;-57
2022/05/29 11:34:18;;;;;;;2.03;1.40;;;19.00;52.40;;;;;;4988983;28;20136;-57
2022/05/29 11:36:48;;;;;;;2.55;1.30;;;18.80;57.80;;;;;;4988783;28;20060;-57
2022/05/29 11:39:39;;;;;;;9.68;1.48;;;18.50;60.20;;;;;;4986202;28;20316;-57
2022/05/29 11:42:19;;;;;;;6.18;0.98;;;18.00;61.10;;;;;;4986699;28;20214;-58
2022/05/29 11:45:02;;;;;;;2.40;1.10;;;17.60;65.80;;;;;;4986985;28;20102;-57
2022/05/29 11:53:26;;;;;;;5.03;1.50;;;16.30;66.10;;;;;;4989896;28;20041;-57
2022/05/29 11:55:56;;;;;;;2.22;1.30;;;15.90;71.70;;;;;;4988381;28;20045;-57
2022/05/29 11:58:39;;;;;;;4.75;1.52;;;15.60;78.50;;;;;;4975644;28;20055;-57
2022/05/29 12:01:24;;;;;;;2.75;1.38;;;15.40;77.80;;;;;;4989461;28;20049;-57
2022/05/29 12:04:01;;;;;;;3.20;1.08;;;15.20;81.80;;;;;;4985803;28;20194;-62
2022/05/29 12:06:34;;;;;;;;;;;15.00;84.50;;;;;;4986917;28;20041;-61
2022/05/29 12:09:18;;;;;;;3.25;1.25;;;14.90;90.30;;;;;;4989479;28;19956;-61
2022/05/29 12:12:08;;;;;;;4.80;1.40;;;14.80;91.10;;;;;;4987664;28;20562;-61
2022/05/29 12:14:50;;;;;;;1.70;0.90;;;14.60;91.40;;;;;;4979473;28;20157;-62
2022/05/29 12:17:19;;;;;;;2.30;1.63;;;14.60;92.80;;;;;;4988554;28;20916;-60
2022/05/29 12:19:58;;;;;;;3.33;1.13;;;14.50;93.80;;;;;;4986415;28;20040;-61
2022/05/29 12:22:35;;;;;;;2.13;1.23;;;14.60;94.30;;;;;;4989307;28;20094;-59
2022/05/29 12:25:20;;;;;;;4.03;1.52;;;14.70;94.40;;;;;;4988703;28;20554;-57
2022/05/29 12:27:49;;;;;;;3.90;1.38;;;14.80;94.10;;;;;;4986744;28;20136;-59
2022/05/29 12:30:32;;;;;;;2.30;1.20;;;14.90;94.50;;;;;;4986171;28;20045;-57
2022/05/29 12:33:08;;;;;;;2.53;1.35;;;14.90;92.80;;;;;;4986059;28;20195;-59
2022/05/29 12:35:44;;;;;;;5.40;1.40;;;14.80;92.50;;;;;;4982105;28;20373;-58
2022/05/29 12:38:34;;;;;;;3.00;1.48;;;14.60;92.70;;;;;;4967323;28;20269;-60
2022/05/29 12:41:10;;;;;;;4.10;1.27;;;14.40;95.00;;;;;;4974386;28;20219;-57
2022/05/29 12:44:13;;;;;;;4.00;1.67;;;14.20;96.60;;;;;;4992341;28;20427;-58
2022/05/29 12:46:56;;;;;;;2.97;1.20;;;14.00;97.00;;;;;;4990062;28;20652;-59
2022/05/29 12:49:44;;;;;;;5.22;1.88;;;13.70;98.10;;;;;;4992829;28;20049;-57
2022/05/29 12:52:21;;;;;;;4.97;1.90;;;13.50;99.90;;;;;;4968947;28;20037;-57
2022/05/29 12:55:39;;;;;;;3.08;1.52;;;13.20;99.90;;;;;;4971995;28;20037;-57
2022/05/29 12:58:21;;;;;;;2.92;1.50;;;12.90;99.90;;;;;;4925782;28;20054;-60
2022/05/29 13:01:06;;;;;;;3.67;1.70;;;12.70;99.90;;;;;;4925548;28;20375;-59
2022/05/29 13:03:57;;;;;;;2.90;2.17;;;12.50;99.90;;;;;;4926018;28;20119;-63
2022/05/29 13:07:05;;;;;;;6.50;1.70;;;12.30;99.90;;;;;;4965554;28;20351;-63
2022/05/29 13:10:20;;;;;;;5.00;2.58;;;12.20;99.90;;;;;;4986775;28;20763;-56
2022/05/29 13:13:04;;;;;;;2.42;1.45;;;12.00;99.90;;;;;;4909038;28;20047;-55
2022/05/29 13:15:34;;;;;;;3.58;1.73;;;11.90;99.90;;;;;;4952530;28;20076;-57
2022/05/29 13:18:04;;;;;;;3.50;1.88;;;11.70;99.90;;;;;;4986365;28;20056;-60
2022/05/29 13:21:03;;;;;;;4.47;1.83;;;11.60;99.90;;;;;;4987020;28;20308;-57
2022/05/29 13:23:47;;;;;;;3.60;1.33;;;11.40;99.90;;;;;;4991532;28;20041;-58
2022/05/29 13:26:31;;;;;;;2.58;1.65;;;11.30;99.90;;;;;;4984604;28;20040;-58
2022/05/29 13:28:59;;;;;;;3.55;1.40;;;11.20;99.90;;;;;;4989642;28;20033;-56
2022/05/29 13:31:31;;;;;;;3.92;1.52;;;11.10;99.90;;;;;;4988661;28;20785;-57
2022/05/29 13:34:37;;;;;;;6.70;2.40;;;11.10;99.90;;;;;;4985692;28;20581;-55
2022/05/29 13:37:06;;;;;;;2.78;1.73;;;11.00;99.90;;;;;;4921702;28;20034;-57
2022/05/29 13:40:00;;;;;;;4.03;2.10;;;11.00;99.90;;;;;;4923088;28;20552;-58
2022/05/29 13:42:51;;;;;;;5.80;2.28;;;10.90;99.90;;;;;;4962476;28;20329;-59
2022/05/29 13:45:24;;;;;;;3.88;1.83;;;10.80;99.90;;;;;;4983391;28;20122;-61
2022/05/29 13:48:17;;;;;;;3.30;2.55;;;10.70;99.90;;;;;;4987964;28;20534;-54
2022/05/29 13:50:56;;;;;;;3.83;2.70;;;10.60;99.90;;;;;;4977901;28;20739;-63
2022/05/29 13:53:48;;;;;;;7.38;2.45;;;10.50;99.90;;;;;;4990290;28;20064;-61
2022/05/29 13:56:19;;;;;;;5.93;2.67;;;10.30;99.90;;;;;;4963821;28;20218;-61
2022/05/29 14:04:36;;;;;;;5.43;2.13;;;9.80;99.90;;;;;;4983412;28;20212;-59
2022/05/29 14:07:18;;;;;;;4.20;1.98;;;9.60;99.90;;;;;;4965774;28;20049;-59
2022/05/29 14:10:21;;;;;;;4.70;2.67;;;9.40;99.90;;;;;;4965082;28;20073;-59
2022/05/29 14:12:54;;;;;;;4.03;2.00;;;9.30;99.90;;;;;;4962341;28;20084;-57
2022/05/29 14:15:43;;;;;;;3.97;1.75;;;9.20;99.90;;;;;;4964466;28;20788;-57
2022/05/29 14:18:26;;;;;;;4.00;2.35;;;9.10;99.90;;;;;;4981671;28;20052;-56
2022/05/29 14:21:08;;;;;;;4.95;2.70;;;9.10;99.90;;;;;;4984984;28;20374;-55